sensor_id;sensor_type;location;lat;lon;timestamp;temperature;humidity
53962;DHT22;39868;53.398;6.564;2023-05-10T00:02:12;17.20;81.80
53962;DHT22;39868;53.398;6.564;2023-05-10T00:04:39;17.20;81.80
53962;DHT22;39868;53.398;6.564;2023-05-10T00:07:06;17.10;81.80
53962;DHT22;39868;53.398;6.564;2023-05-10T00:09:34;17.10;81.80
53962;DHT22;39868;53.398;6.564;2023-05-10T00:12:01;17.00;81.90
53962;DHT22;39868;53.398;6.564;2023-05-10T00:14:28;17.00;82.00
53962;DHT22;39868;53.398;6.564;2023-05-10T00:16:55;17.00;82.60
53962;DHT22;39868;53.398;6.564;2023-05-10T00:19:23;16.90;82.00
53962;DHT22;39868;53.398;6.564;2023-05-10T00:21:50;16.90;82.10
53962;DHT22;39868;53.398;6.564;2023-05-10T00:24:17;16.90;82.80
53962;DHT22;39868;53.398;6.564;2023-05-10T00:26:44;16.80;82.20
53962;DHT22;39868;53.398;6.564;2023-05-10T00:29:13;16.80;82.10
53962;DHT22;39868;53.398;6.564;2023-05-10T00:31:40;16.80;82.10
53962;DHT22;39868;53.398;6.564;2023-05-10T00:34:09;16.80;82.20
53962;DHT22;39868;53.398;6.564;2023-05-10T00:36:36;16.70;82.10
53962;DHT22;39868;53.398;6.564;2023-05-10T00:39:03;16.70;82.10
53962;DHT22;39868;53.398;6.564;2023-05-10T00:41:31;16.70;82.10
53962;DHT22;39868;53.398;6.564;2023-05-10T00:44:01;16.60;82.10
53962;DHT22;39868;53.398;6.564;2023-05-10T00:46:30;16.60;82.10
53962;DHT22;39868;53.398;6.564;2023-05-10T00:48:58;16.60;82.20
53962;DHT22;39868;53.398;6.564;2023-05-10T00:51:25;16.50;82.20
53962;DHT22;39868;53.398;6.564;2023-05-10T00:53:52;16.50;82.20
53962;DHT22;39868;53.398;6.564;2023-05-10T00:56:20;16.50;82.30
53962;DHT22;39868;53.398;6.564;2023-05-10T00:58:51;16.50;82.30
53962;DHT22;39868;53.398;6.564;2023-05-10T01:01:19;16.50;82.40
53962;DHT22;39868;53.398;6.564;2023-05-10T01:03:47;16.40;82.30
53962;DHT22;39868;53.398;6.564;2023-05-10T01:06:15;16.40;82.40
53962;DHT22;39868;53.398;6.564;2023-05-10T01:08:42;16.40;82.40
53962;DHT22;39868;53.398;6.564;2023-05-10T01:11:09;16.40;82.50
53962;DHT22;39868;53.398;6.564;2023-05-10T01:13:38;16.40;82.50
53962;DHT22;39868;53.398;6.564;2023-05-10T01:16:06;16.40;82.50
53962;DHT22;39868;53.398;6.564;2023-05-10T01:18:38;16.40;82.60
53962;DHT22;39868;53.398;6.564;2023-05-10T01:27:07;16.30;82.70
53962;DHT22;39868;53.398;6.564;2023-05-10T01:38:09;16.30;82.70
53962;DHT22;39868;53.398;6.564;2023-05-10T01:43:42;16.30;82.70
53962;DHT22;39868;53.398;6.564;2023-05-10T01:46:20;16.30;82.80
53962;DHT22;39868;53.398;6.564;2023-05-10T01:48:52;16.30;82.70
53962;DHT22;39868;53.398;6.564;2023-05-10T01:51:23;16.30;82.80
53962;DHT22;39868;53.398;6.564;2023-05-10T01:54:00;16.20;82.60
53962;DHT22;39868;53.398;6.564;2023-05-10T01:56:30;16.20;82.60
53962;DHT22;39868;53.398;6.564;2023-05-10T01:59:00;16.20;82.60
53962;DHT22;39868;53.398;6.564;2023-05-10T02:01:31;16.20;82.60
53962;DHT22;39868;53.398;6.564;2023-05-10T02:04:02;16.20;82.60
53962;DHT22;39868;53.398;6.564;2023-05-10T02:06:30;16.20;82.60
53962;DHT22;39868;53.398;6.564;2023-05-10T02:09:01;16.10;82.60
53962;DHT22;39868;53.398;6.564;2023-05-10T02:11:30;16.10;82.70
53962;DHT22;39868;53.398;6.564;2023-05-10T02:13:58;16.10;82.70
53962;DHT22;39868;53.398;6.564;2023-05-10T02:16:27;16.10;82.70
53962;DHT22;39868;53.398;6.564;2023-05-10T02:18:59;16.10;82.80
53962;DHT22;39868;53.398;6.564;2023-05-10T02:21:29;16.10;82.80
53962;DHT22;39868;53.398;6.564;2023-05-10T02:23:58;16.10;82.80
53962;DHT22;39868;53.398;6.564;2023-05-10T02:26:28;16.10;82.80
53962;DHT22;39868;53.398;6.564;2023-05-10T02:28:57;16.10;82.80
53962;DHT22;39868;53.398;6.564;2023-05-10T02:31:25;16.10;82.80
53962;DHT22;39868;53.398;6.564;2023-05-10T02:33:53;16.10;83.40
53962;DHT22;39868;53.398;6.564;2023-05-10T02:36:21;16.10;82.90
53962;DHT22;39868;53.398;6.564;2023-05-10T02:38:50;16.10;82.90
53962;DHT22;39868;53.398;6.564;2023-05-10T02:41:20;16.10;82.90
53962;DHT22;39868;53.398;6.564;2023-05-10T02:43:50;16.10;82.90
53962;DHT22;39868;53.398;6.564;2023-05-10T02:46:19;16.00;82.90
53962;DHT22;39868;53.398;6.564;2023-05-10T02:48:46;16.10;82.90
53962;DHT22;39868;53.398;6.564;2023-05-10T02:51:15;16.00;82.90
53962;DHT22;39868;53.398;6.564;2023-05-10T02:53:46;16.00;82.80
53962;DHT22;39868;53.398;6.564;2023-05-10T02:56:17;16.00;82.80
53962;DHT22;39868;53.398;6.564;2023-05-10T02:58:47;16.00;82.90
53962;DHT22;39868;53.398;6.564;2023-05-10T03:01:14;16.00;82.90
53962;DHT22;39868;53.398;6.564;2023-05-10T03:03:42;16.00;82.90
53962;DHT22;39868;53.398;6.564;2023-05-10T03:06:09;16.00;82.90
53962;DHT22;39868;53.398;6.564;2023-05-10T03:08:37;16.00;83.00
53962;DHT22;39868;53.398;6.564;2023-05-10T03:16:47;15.90;83.00
53962;DHT22;39868;53.398;6.564;2023-05-10T03:19:26;15.90;83.00
53962;DHT22;39868;53.398;6.564;2023-05-10T03:21:59;15.90;83.00
53962;DHT22;39868;53.398;6.564;2023-05-10T03:24:34;15.90;83.10
53962;DHT22;39868;53.398;6.564;2023-05-10T03:27:03;15.90;83.10
53962;DHT22;39868;53.398;6.564;2023-05-10T03:29:32;15.90;83.10
53962;DHT22;39868;53.398;6.564;2023-05-10T03:32:00;15.90;83.10
53962;DHT22;39868;53.398;6.564;2023-05-10T03:34:30;15.90;83.10
53962;DHT22;39868;53.398;6.564;2023-05-10T03:36:58;15.90;83.10
53962;DHT22;39868;53.398;6.564;2023-05-10T03:39:36;15.90;83.10
53962;DHT22;39868;53.398;6.564;2023-05-10T03:42:07;15.90;83.20
53962;DHT22;39868;53.398;6.564;2023-05-10T03:44:34;15.90;83.20
53962;DHT22;39868;53.398;6.564;2023-05-10T03:47:02;15.80;83.20
53962;DHT22;39868;53.398;6.564;2023-05-10T03:49:29;15.90;83.20
53962;DHT22;39868;53.398;6.564;2023-05-10T03:51:56;15.80;83.20
53962;DHT22;39868;53.398;6.564;2023-05-10T03:54:23;15.80;83.20
53962;DHT22;39868;53.398;6.564;2023-05-10T03:56:50;15.80;83.20
53962;DHT22;39868;53.398;6.564;2023-05-10T03:59:19;15.80;83.30
53962;DHT22;39868;53.398;6.564;2023-05-10T04:01:46;15.80;83.30
53962;DHT22;39868;53.398;6.564;2023-05-10T04:04:14;15.80;83.30
53962;DHT22;39868;53.398;6.564;2023-05-10T04:06:41;15.80;83.30
53962;DHT22;39868;53.398;6.564;2023-05-10T04:09:08;15.80;83.30
53962;DHT22;39868;53.398;6.564;2023-05-10T04:11:36;15.80;83.30
53962;DHT22;39868;53.398;6.564;2023-05-10T04:14:03;15.80;83.40
53962;DHT22;39868;53.398;6.564;2023-05-10T04:16:30;15.80;83.40
53962;DHT22;39868;53.398;6.564;2023-05-10T04:18:57;15.80;83.40
53962;DHT22;39868;53.398;6.564;2023-05-10T04:21:24;15.80;83.40
53962;DHT22;39868;53.398;6.564;2023-05-10T04:23:52;15.80;83.40
53962;DHT22;39868;53.398;6.564;2023-05-10T04:26:19;15.80;83.40
53962;DHT22;39868;53.398;6.564;2023-05-10T04:28:47;15.80;83.40
53962;DHT22;39868;53.398;6.564;2023-05-10T04:31:14;15.80;84.00
53962;DHT22;39868;53.398;6.564;2023-05-10T04:33:41;15.80;83.40
53962;DHT22;39868;53.398;6.564;2023-05-10T04:36:08;15.80;83.40
53962;DHT22;39868;53.398;6.564;2023-05-10T04:38:36;15.80;83.50
53962;DHT22;39868;53.398;6.564;2023-05-10T04:41:07;15.80;83.50
53962;DHT22;39868;53.398;6.564;2023-05-10T04:43:36;15.80;83.60
53962;DHT22;39868;53.398;6.564;2023-05-10T04:46:04;15.80;83.60
53962;DHT22;39868;53.398;6.564;2023-05-10T04:48:32;15.80;83.60
53962;DHT22;39868;53.398;6.564;2023-05-10T04:50:59;15.70;83.50
53962;DHT22;39868;53.398;6.564;2023-05-10T04:53:27;15.80;83.60
53962;DHT22;39868;53.398;6.564;2023-05-10T04:55:54;15.80;83.60
53962;DHT22;39868;53.398;6.564;2023-05-10T04:58:21;15.80;83.60
53962;DHT22;39868;53.398;6.564;2023-05-10T05:00:48;15.80;83.60
53962;DHT22;39868;53.398;6.564;2023-05-10T05:03:15;15.80;83.60
53962;DHT22;39868;53.398;6.564;2023-05-10T05:05:43;15.80;83.60
53962;DHT22;39868;53.398;6.564;2023-05-10T05:08:11;15.80;83.60
53962;DHT22;39868;53.398;6.564;2023-05-10T05:10:39;15.80;83.70
53962;DHT22;39868;53.398;6.564;2023-05-10T05:13:06;15.80;83.70
53962;DHT22;39868;53.398;6.564;2023-05-10T05:15:34;15.80;83.70
53962;DHT22;39868;53.398;6.564;2023-05-10T05:18:01;15.80;83.70
53962;DHT22;39868;53.398;6.564;2023-05-10T05:20:31;15.80;83.70
53962;DHT22;39868;53.398;6.564;2023-05-10T05:22:58;15.80;83.80
53962;DHT22;39868;53.398;6.564;2023-05-10T05:25:25;15.80;83.80
53962;DHT22;39868;53.398;6.564;2023-05-10T05:27:53;15.80;83.90
53962;DHT22;39868;53.398;6.564;2023-05-10T05:30:20;15.80;83.90
53962;DHT22;39868;53.398;6.564;2023-05-10T05:32:47;15.70;83.90
53962;DHT22;39868;53.398;6.564;2023-05-10T05:35:14;15.70;83.90
53962;DHT22;39868;53.398;6.564;2023-05-10T05:37:42;15.80;84.00
53962;DHT22;39868;53.398;6.564;2023-05-10T05:40:12;15.80;84.00
53962;DHT22;39868;53.398;6.564;2023-05-10T05:42:40;15.70;84.60
53962;DHT22;39868;53.398;6.564;2023-05-10T05:45:08;15.70;84.00
53962;DHT22;39868;53.398;6.564;2023-05-10T05:47:40;15.70;84.00
53962;DHT22;39868;53.398;6.564;2023-05-10T05:50:08;15.70;84.00
53962;DHT22;39868;53.398;6.564;2023-05-10T05:52:35;15.70;84.10
53962;DHT22;39868;53.398;6.564;2023-05-10T05:55:03;15.60;84.00
53962;DHT22;39868;53.398;6.564;2023-05-10T05:57:30;15.60;84.10
53962;DHT22;39868;53.398;6.564;2023-05-10T05:59:58;15.60;84.10
53962;DHT22;39868;53.398;6.564;2023-05-10T06:02:25;15.60;84.10
53962;DHT22;39868;53.398;6.564;2023-05-10T06:04:52;15.50;84.10
53962;DHT22;39868;53.398;6.564;2023-05-10T06:07:19;15.50;84.00
53962;DHT22;39868;53.398;6.564;2023-05-10T06:09:47;15.40;84.00
53962;DHT22;39868;53.398;6.564;2023-05-10T06:12:14;15.40;84.20
53962;DHT22;39868;53.398;6.564;2023-05-10T06:14:41;15.40;84.30
53962;DHT22;39868;53.398;6.564;2023-05-10T06:17:08;15.30;84.30
53962;DHT22;39868;53.398;6.564;2023-05-10T06:19:35;15.30;84.50
53962;DHT22;39868;53.398;6.564;2023-05-10T06:22:03;15.30;84.50
53962;DHT22;39868;53.398;6.564;2023-05-10T06:24:30;15.20;84.60
53962;DHT22;39868;53.398;6.564;2023-05-10T06:26:58;15.20;84.70
53962;DHT22;39868;53.398;6.564;2023-05-10T06:29:27;15.20;84.80
53962;DHT22;39868;53.398;6.564;2023-05-10T06:31:54;15.20;84.90
53962;DHT22;39868;53.398;6.564;2023-05-10T06:34:21;15.10;84.90
53962;DHT22;39868;53.398;6.564;2023-05-10T06:36:48;15.10;85.00
53962;DHT22;39868;53.398;6.564;2023-05-10T06:39:15;15.10;84.90
53962;DHT22;39868;53.398;6.564;2023-05-10T06:41:43;15.10;84.90
53962;DHT22;39868;53.398;6.564;2023-05-10T06:44:10;15.00;84.90
53962;DHT22;39868;53.398;6.564;2023-05-10T06:46:37;15.00;84.90
53962;DHT22;39868;53.398;6.564;2023-05-10T06:49:04;15.00;85.00
53962;DHT22;39868;53.398;6.564;2023-05-10T06:51:31;15.00;85.00
53962;DHT22;39868;53.398;6.564;2023-05-10T06:53:59;14.90;85.10
53962;DHT22;39868;53.398;6.564;2023-05-10T06:56:26;14.90;85.10
53962;DHT22;39868;53.398;6.564;2023-05-10T06:58:54;14.90;85.30
53962;DHT22;39868;53.398;6.564;2023-05-10T07:01:21;14.90;85.30
53962;DHT22;39868;53.398;6.564;2023-05-10T07:03:48;14.80;85.30
53962;DHT22;39868;53.398;6.564;2023-05-10T07:06:16;14.80;85.40
53962;DHT22;39868;53.398;6.564;2023-05-10T07:08:58;14.80;85.50
53962;DHT22;39868;53.398;6.564;2023-05-10T07:11:25;14.80;85.40
53962;DHT22;39868;53.398;6.564;2023-05-10T07:13:53;14.80;85.50
53962;DHT22;39868;53.398;6.564;2023-05-10T07:16:20;14.80;85.50
53962;DHT22;39868;53.398;6.564;2023-05-10T07:18:48;14.80;85.60
53962;DHT22;39868;53.398;6.564;2023-05-10T07:21:17;14.80;85.70
53962;DHT22;39868;53.398;6.564;2023-05-10T07:23:44;14.80;85.70
53962;DHT22;39868;53.398;6.564;2023-05-10T07:26:11;14.70;85.90
53962;DHT22;39868;53.398;6.564;2023-05-10T07:28:38;14.80;85.90
53962;DHT22;39868;53.398;6.564;2023-05-10T07:31:06;14.80;85.90
53962;DHT22;39868;53.398;6.564;2023-05-10T07:33:33;14.80;86.10
53962;DHT22;39868;53.398;6.564;2023-05-10T07:36:00;14.80;86.10
53962;DHT22;39868;53.398;6.564;2023-05-10T07:38:27;14.90;86.10
53962;DHT22;39868;53.398;6.564;2023-05-10T07:40:54;14.90;86.10
53962;DHT22;39868;53.398;6.564;2023-05-10T07:43:22;14.90;86.20
53962;DHT22;39868;53.398;6.564;2023-05-10T07:45:49;15.00;86.30
53962;DHT22;39868;53.398;6.564;2023-05-10T07:48:16;15.00;86.30
53962;DHT22;39868;53.398;6.564;2023-05-10T07:50:43;15.00;86.20
53962;DHT22;39868;53.398;6.564;2023-05-10T07:53:10;15.00;86.40
53962;DHT22;39868;53.398;6.564;2023-05-10T07:55:39;15.00;86.30
53962;DHT22;39868;53.398;6.564;2023-05-10T07:58:06;15.00;86.20
53962;DHT22;39868;53.398;6.564;2023-05-10T08:00:34;15.00;86.20
53962;DHT22;39868;53.398;6.564;2023-05-10T08:03:01;15.00;86.10
53962;DHT22;39868;53.398;6.564;2023-05-10T08:05:28;15.10;86.10
53962;DHT22;39868;53.398;6.564;2023-05-10T08:07:55;15.10;86.00
53962;DHT22;39868;53.398;6.564;2023-05-10T08:10:23;15.10;86.00
53962;DHT22;39868;53.398;6.564;2023-05-10T08:12:51;15.10;86.00
53962;DHT22;39868;53.398;6.564;2023-05-10T08:15:18;15.10;86.10
53962;DHT22;39868;53.398;6.564;2023-05-10T08:17:53;15.10;86.20
53962;DHT22;39868;53.398;6.564;2023-05-10T08:20:20;15.20;86.10
53962;DHT22;39868;53.398;6.564;2023-05-10T08:22:47;15.20;86.20
53962;DHT22;39868;53.398;6.564;2023-05-10T08:25:17;15.20;86.10
53962;DHT22;39868;53.398;6.564;2023-05-10T08:27:45;15.20;86.20
53962;DHT22;39868;53.398;6.564;2023-05-10T08:30:12;15.20;86.20
53962;DHT22;39868;53.398;6.564;2023-05-10T08:32:40;15.30;86.20
53962;DHT22;39868;53.398;6.564;2023-05-10T08:35:07;15.30;86.20
53962;DHT22;39868;53.398;6.564;2023-05-10T08:37:34;15.30;86.10
53962;DHT22;39868;53.398;6.564;2023-05-10T08:40:02;15.40;86.30
53962;DHT22;39868;53.398;6.564;2023-05-10T08:42:30;15.40;86.30
53962;DHT22;39868;53.398;6.564;2023-05-10T08:45:01;15.40;86.30
53962;DHT22;39868;53.398;6.564;2023-05-10T08:47:29;15.40;86.20
53962;DHT22;39868;53.398;6.564;2023-05-10T08:49:58;15.40;86.10
53962;DHT22;39868;53.398;6.564;2023-05-10T08:52:26;15.50;86.20
53962;DHT22;39868;53.398;6.564;2023-05-10T08:54:55;15.50;86.10
53962;DHT22;39868;53.398;6.564;2023-05-10T08:57:22;15.50;86.20
53962;DHT22;39868;53.398;6.564;2023-05-10T08:59:49;15.50;86.20
53962;DHT22;39868;53.398;6.564;2023-05-10T09:02:16;15.60;86.30
53962;DHT22;39868;53.398;6.564;2023-05-10T09:04:45;15.60;86.30
53962;DHT22;39868;53.398;6.564;2023-05-10T09:07:12;15.60;86.20
53962;DHT22;39868;53.398;6.564;2023-05-10T09:09:39;15.60;86.20
53962;DHT22;39868;53.398;6.564;2023-05-10T09:12:09;15.60;86.10
53962;DHT22;39868;53.398;6.564;2023-05-10T09:14:38;15.70;86.10
53962;DHT22;39868;53.398;6.564;2023-05-10T09:17:06;15.70;86.10
53962;DHT22;39868;53.398;6.564;2023-05-10T09:19:33;15.70;86.00
53962;DHT22;39868;53.398;6.564;2023-05-10T09:22:01;15.70;86.00
53962;DHT22;39868;53.398;6.564;2023-05-10T09:24:30;15.70;86.00
53962;DHT22;39868;53.398;6.564;2023-05-10T09:26:57;15.70;86.00
53962;DHT22;39868;53.398;6.564;2023-05-10T09:29:42;15.80;86.00
53962;DHT22;39868;53.398;6.564;2023-05-10T09:32:09;15.80;86.00
53962;DHT22;39868;53.398;6.564;2023-05-10T09:34:36;15.80;86.00
53962;DHT22;39868;53.398;6.564;2023-05-10T09:37:06;15.90;86.00
53962;DHT22;39868;53.398;6.564;2023-05-10T09:39:36;15.90;85.90
53962;DHT22;39868;53.398;6.564;2023-05-10T09:42:08;15.90;85.80
53962;DHT22;39868;53.398;6.564;2023-05-10T09:44:36;15.90;85.80
53962;DHT22;39868;53.398;6.564;2023-05-10T09:47:03;16.00;85.80
53962;DHT22;39868;53.398;6.564;2023-05-10T09:49:31;16.00;85.80
53962;DHT22;39868;53.398;6.564;2023-05-10T09:52:02;16.00;85.80
53962;DHT22;39868;53.398;6.564;2023-05-10T09:54:30;16.10;85.90
53962;DHT22;39868;53.398;6.564;2023-05-10T09:56:57;16.20;85.90
53962;DHT22;39868;53.398;6.564;2023-05-10T09:59:26;16.20;85.70
53962;DHT22;39868;53.398;6.564;2023-05-10T10:02:00;16.20;85.60
53962;DHT22;39868;53.398;6.564;2023-05-10T10:04:27;16.30;85.60
53962;DHT22;39868;53.398;6.564;2023-05-10T10:07:04;16.30;85.50
53962;DHT22;39868;53.398;6.564;2023-05-10T10:09:33;16.30;85.50
53962;DHT22;39868;53.398;6.564;2023-05-10T10:12:04;16.40;85.60
53962;DHT22;39868;53.398;6.564;2023-05-10T10:14:31;16.40;85.50
53962;DHT22;39868;53.398;6.564;2023-05-10T10:17:00;16.50;85.50
53962;DHT22;39868;53.398;6.564;2023-05-10T10:19:33;16.50;85.50
53962;DHT22;39868;53.398;6.564;2023-05-10T10:22:00;16.60;85.50
53962;DHT22;39868;53.398;6.564;2023-05-10T10:24:27;16.70;85.40
53962;DHT22;39868;53.398;6.564;2023-05-10T10:26:59;16.70;85.30
53962;DHT22;39868;53.398;6.564;2023-05-10T10:29:39;16.80;85.40
53962;DHT22;39868;53.398;6.564;2023-05-10T10:32:46;16.80;85.30
53962;DHT22;39868;53.398;6.564;2023-05-10T10:35:20;16.90;85.20
53962;DHT22;39868;53.398;6.564;2023-05-10T10:37:50;16.90;84.90
53962;DHT22;39868;53.398;6.564;2023-05-10T10:40:25;16.90;84.60
53962;DHT22;39868;53.398;6.564;2023-05-10T10:42:53;17.00;84.60
53962;DHT22;39868;53.398;6.564;2023-05-10T10:45:22;17.00;84.60
53962;DHT22;39868;53.398;6.564;2023-05-10T10:48:23;17.00;84.60
53962;DHT22;39868;53.398;6.564;2023-05-10T10:50:56;17.00;85.20
53962;DHT22;39868;53.398;6.564;2023-05-10T10:53:28;17.00;84.60
53962;DHT22;39868;53.398;6.564;2023-05-10T10:56:08;17.00;84.60
53962;DHT22;39868;53.398;6.564;2023-05-10T10:58:38;17.10;84.60
53962;DHT22;39868;53.398;6.564;2023-05-10T11:03:41;17.10;84.30
53962;DHT22;39868;53.398;6.564;2023-05-10T11:06:08;17.10;84.40
53962;DHT22;39868;53.398;6.564;2023-05-10T11:08:42;17.20;84.50
53962;DHT22;39868;53.398;6.564;2023-05-10T11:11:14;17.20;84.40
53962;DHT22;39868;53.398;6.564;2023-05-10T11:13:46;17.30;84.30
53962;DHT22;39868;53.398;6.564;2023-05-10T11:16:22;17.30;84.30
53962;DHT22;39868;53.398;6.564;2023-05-10T11:19:05;17.30;84.10
53962;DHT22;39868;53.398;6.564;2023-05-10T11:21:36;17.40;84.10
53962;DHT22;39868;53.398;6.564;2023-05-10T11:24:16;17.40;84.00
53962;DHT22;39868;53.398;6.564;2023-05-10T11:26:43;17.40;83.80
53962;DHT22;39868;53.398;6.564;2023-05-10T11:29:13;17.40;83.70
53962;DHT22;39868;53.398;6.564;2023-05-10T11:31:47;17.40;83.60
53962;DHT22;39868;53.398;6.564;2023-05-10T11:34:28;17.40;83.60
53962;DHT22;39868;53.398;6.564;2023-05-10T11:36:57;17.40;83.60
53962;DHT22;39868;53.398;6.564;2023-05-10T11:39:28;17.40;83.50
53962;DHT22;39868;53.398;6.564;2023-05-10T11:41:57;17.40;83.40
53962;DHT22;39868;53.398;6.564;2023-05-10T11:44:32;17.40;83.40
53962;DHT22;39868;53.398;6.564;2023-05-10T11:47:00;17.40;83.30
53962;DHT22;39868;53.398;6.564;2023-05-10T11:49:28;17.40;83.20
53962;DHT22;39868;53.398;6.564;2023-05-10T11:52:07;17.40;83.20
53962;DHT22;39868;53.398;6.564;2023-05-10T11:54:35;17.40;83.30
53962;DHT22;39868;53.398;6.564;2023-05-10T11:57:03;17.40;83.90
53962;DHT22;39868;53.398;6.564;2023-05-10T11:59:30;17.40;83.30
53962;DHT22;39868;53.398;6.564;2023-05-10T12:01:58;17.40;83.40
53962;DHT22;39868;53.398;6.564;2023-05-10T12:04:26;17.40;83.30
53962;DHT22;39868;53.398;6.564;2023-05-10T12:06:56;17.40;83.30
53962;DHT22;39868;53.398;6.564;2023-05-10T12:09:23;17.40;83.40
53962;DHT22;39868;53.398;6.564;2023-05-10T12:12:09;17.50;83.60
53962;DHT22;39868;53.398;6.564;2023-05-10T12:14:36;17.50;83.60
53962;DHT22;39868;53.398;6.564;2023-05-10T12:17:04;17.50;83.50
53962;DHT22;39868;53.398;6.564;2023-05-10T12:19:38;17.50;83.50
53962;DHT22;39868;53.398;6.564;2023-05-10T12:22:06;17.50;83.50
53962;DHT22;39868;53.398;6.564;2023-05-10T12:24:36;17.60;83.50
53962;DHT22;39868;53.398;6.564;2023-05-10T12:27:10;17.60;83.30
53962;DHT22;39868;53.398;6.564;2023-05-10T12:29:41;17.60;83.20
53962;DHT22;39868;53.398;6.564;2023-05-10T12:32:11;17.60;83.30
53962;DHT22;39868;53.398;6.564;2023-05-10T12:34:38;17.60;83.30
53962;DHT22;39868;53.398;6.564;2023-05-10T12:37:05;17.70;83.40
53962;DHT22;39868;53.398;6.564;2023-05-10T12:39:40;17.70;83.50
53962;DHT22;39868;53.398;6.564;2023-05-10T12:42:08;17.70;83.50
53962;DHT22;39868;53.398;6.564;2023-05-10T12:44:35;17.80;83.40
53962;DHT22;39868;53.398;6.564;2023-05-10T12:47:03;17.80;83.40
53962;DHT22;39868;53.398;6.564;2023-05-10T12:49:30;17.80;83.30
53962;DHT22;39868;53.398;6.564;2023-05-10T12:51:57;17.90;83.30
53962;DHT22;39868;53.398;6.564;2023-05-10T12:54:24;17.90;83.20
53962;DHT22;39868;53.398;6.564;2023-05-10T12:56:52;18.00;83.20
53962;DHT22;39868;53.398;6.564;2023-05-10T12:59:19;18.00;82.90
53962;DHT22;39868;53.398;6.564;2023-05-10T13:01:46;18.00;82.60
53962;DHT22;39868;53.398;6.564;2023-05-10T13:04:13;18.10;82.90
53962;DHT22;39868;53.398;6.564;2023-05-10T13:06:40;18.10;83.00
53962;DHT22;39868;53.398;6.564;2023-05-10T13:09:07;18.20;83.10
53962;DHT22;39868;53.398;6.564;2023-05-10T13:11:34;18.20;83.00
53962;DHT22;39868;53.398;6.564;2023-05-10T13:14:02;18.40;83.10
53962;DHT22;39868;53.398;6.564;2023-05-10T13:16:31;18.50;83.20
53962;DHT22;39868;53.398;6.564;2023-05-10T13:18:58;18.60;83.20
53962;DHT22;39868;53.398;6.564;2023-05-10T13:21:26;18.60;83.00
53962;DHT22;39868;53.398;6.564;2023-05-10T13:23:53;18.80;82.80
53962;DHT22;39868;53.398;6.564;2023-05-10T13:26:20;18.90;82.60
53962;DHT22;39868;53.398;6.564;2023-05-10T13:28:48;18.90;82.50
53962;DHT22;39868;53.398;6.564;2023-05-10T13:31:16;19.00;82.30
53962;DHT22;39868;53.398;6.564;2023-05-10T13:33:43;19.00;82.00
53962;DHT22;39868;53.398;6.564;2023-05-10T13:36:10;19.10;81.60
53962;DHT22;39868;53.398;6.564;2023-05-10T13:38:37;19.10;81.40
53962;DHT22;39868;53.398;6.564;2023-05-10T13:41:04;19.10;81.30
53962;DHT22;39868;53.398;6.564;2023-05-10T13:43:32;19.20;80.80
53962;DHT22;39868;53.398;6.564;2023-05-10T13:45:59;19.20;80.30
53962;DHT22;39868;53.398;6.564;2023-05-10T13:48:27;19.20;80.70
53962;DHT22;39868;53.398;6.564;2023-05-10T13:50:54;19.20;80.60
53962;DHT22;39868;53.398;6.564;2023-05-10T13:53:21;19.20;80.80
53962;DHT22;39868;53.398;6.564;2023-05-10T13:55:49;19.20;80.00
53962;DHT22;39868;53.398;6.564;2023-05-10T13:58:16;19.20;80.30
53962;DHT22;39868;53.398;6.564;2023-05-10T14:00:43;19.20;79.90
53962;DHT22;39868;53.398;6.564;2023-05-10T14:03:10;19.10;79.40
53962;DHT22;39868;53.398;6.564;2023-05-10T14:05:38;19.10;79.20
53962;DHT22;39868;53.398;6.564;2023-05-10T14:08:05;19.00;79.30
53962;DHT22;39868;53.398;6.564;2023-05-10T14:10:33;19.00;79.20
53962;DHT22;39868;53.398;6.564;2023-05-10T14:13:00;18.90;79.30
53962;DHT22;39868;53.398;6.564;2023-05-10T14:15:28;18.90;79.70
53962;DHT22;39868;53.398;6.564;2023-05-10T14:17:55;19.00;80.20
53962;DHT22;39868;53.398;6.564;2023-05-10T14:20:22;19.00;80.40
53962;DHT22;39868;53.398;6.564;2023-05-10T14:22:49;19.00;80.10
53962;DHT22;39868;53.398;6.564;2023-05-10T14:25:16;19.00;80.00
53962;DHT22;39868;53.398;6.564;2023-05-10T14:27:44;19.00;79.90
53962;DHT22;39868;53.398;6.564;2023-05-10T14:30:12;19.00;79.50
53962;DHT22;39868;53.398;6.564;2023-05-10T14:32:39;19.00;79.10
53962;DHT22;39868;53.398;6.564;2023-05-10T14:35:07;18.90;79.10
53962;DHT22;39868;53.398;6.564;2023-05-10T14:37:37;18.90;79.10
53962;DHT22;39868;53.398;6.564;2023-05-10T14:40:06;18.90;78.90
53962;DHT22;39868;53.398;6.564;2023-05-10T14:42:33;18.80;78.90
53962;DHT22;39868;53.398;6.564;2023-05-10T14:45:00;18.80;78.80
53962;DHT22;39868;53.398;6.564;2023-05-10T14:47:27;18.80;79.10
53962;DHT22;39868;53.398;6.564;2023-05-10T14:49:54;18.70;79.10
53962;DHT22;39868;53.398;6.564;2023-05-10T14:52:23;18.80;79.10
53962;DHT22;39868;53.398;6.564;2023-05-10T14:54:50;18.80;79.20
53962;DHT22;39868;53.398;6.564;2023-05-10T14:57:17;18.80;79.00
53962;DHT22;39868;53.398;6.564;2023-05-10T14:59:44;18.80;79.20
53962;DHT22;39868;53.398;6.564;2023-05-10T15:02:12;18.80;79.20
53962;DHT22;39868;53.398;6.564;2023-05-10T15:04:40;18.90;79.20
53962;DHT22;39868;53.398;6.564;2023-05-10T15:07:08;18.90;79.10
53962;DHT22;39868;53.398;6.564;2023-05-10T15:09:35;19.00;79.10
53962;DHT22;39868;53.398;6.564;2023-05-10T15:12:02;19.00;79.60
53962;DHT22;39868;53.398;6.564;2023-05-10T15:14:31;19.00;78.70
53962;DHT22;39868;53.398;6.564;2023-05-10T15:16:59;19.00;78.50
53962;DHT22;39868;53.398;6.564;2023-05-10T15:19:27;18.90;78.00
53962;DHT22;39868;53.398;6.564;2023-05-10T15:21:55;18.80;77.80
53962;DHT22;39868;53.398;6.564;2023-05-10T15:24:22;18.80;77.30
53962;DHT22;39868;53.398;6.564;2023-05-10T15:26:49;18.80;77.40
53962;DHT22;39868;53.398;6.564;2023-05-10T15:29:16;18.70;77.50
53962;DHT22;39868;53.398;6.564;2023-05-10T15:31:47;18.70;77.60
53962;DHT22;39868;53.398;6.564;2023-05-10T15:34:15;18.60;77.70
53962;DHT22;39868;53.398;6.564;2023-05-10T15:36:43;18.50;77.80
53962;DHT22;39868;53.398;6.564;2023-05-10T15:39:11;18.50;77.80
53962;DHT22;39868;53.398;6.564;2023-05-10T15:41:38;18.40;77.80
53962;DHT22;39868;53.398;6.564;2023-05-10T15:44:05;18.30;77.60
53962;DHT22;39868;53.398;6.564;2023-05-10T15:46:32;18.20;77.90
53962;DHT22;39868;53.398;6.564;2023-05-10T15:49:00;18.10;78.00
53962;DHT22;39868;53.398;6.564;2023-05-10T15:51:27;18.10;78.10
53962;DHT22;39868;53.398;6.564;2023-05-10T15:53:54;18.10;78.20
53962;DHT22;39868;53.398;6.564;2023-05-10T15:56:33;18.00;78.20
53962;DHT22;39868;53.398;6.564;2023-05-10T15:59:01;17.90;78.10
53962;DHT22;39868;53.398;6.564;2023-05-10T16:01:30;17.80;78.00
53962;DHT22;39868;53.398;6.564;2023-05-10T16:03:58;17.80;78.00
53962;DHT22;39868;53.398;6.564;2023-05-10T16:06:26;17.70;78.00